Lanvéoc-Poulmic Air Base

Airport
ICAO code: 
LFRL
Summary
ICAO Region: 
EUR
Territory: 
Location: 
, Bretagne
Serving: 
Lanvedoc
Elevation: 
287 ft
Coordinates: 
Aerial View: 
48° 16' 54.131" N, 4° 26' 42.061" W
Metar
Observation
LFRL 060700Z AUTO 20009KT 4900 -RA BR BKN007 BKN011 BKN016 09/08 Q1015 TEMPO BKN002 BECMG 20015G25KT RA
Station
Lanveoc Poulmic
Date/Time
2021-12-06 07:00:00
Wind direction
200°
Wind speed
09 kts
Lowest cloud amount
broken clouds
Temperature
9°C
Dew point
8°C
Humidity
93%
QNH
1015 hPa
Weather condition
n/a

Runways

Designator Length Width Surface Rops
6/24 0 0 UNK No/No
13/31 650 54 GRS No/No
5/23 1108 40 ASP No/No
Airport map: 
Aerial View: 

SKYbrary Partners:

Safety knowledge contributed by: